Arcadia, TX

8:13 AM CDT on April 01, 2015 (GMT -0500)
Mikeg Weather station on Highland Rd | | Change Station
CLOSE
Current Station
Personal Weather Station
Location: Santa Fe, TX
Elevation: 33 ft
Nearby Weather Stations

Elev 33 ft 29.36 °N, 95.13 °W | Updated 13 minutes ago

Overcast
Overcast
69.6 °F
Feels Like 69.6 °F
N
0.0
Wind Variable Wind from North
Gusts 1.0 mph

Today
High -- | Low -- °F
--% Chance of Precip.
Yesterday
High -- | Low -- °F
Precip. -- in
7:10 AM 7:38 PM
Waxing Gibbous, 92% visible
Pressure 30.00 in
Visibility 1.0 miles
Clouds Overcast 200 ft
Dew Point 70 °F
Humidity 100%
Rainfall 0.00 in
Snow Depth Not available.
UV 0 out of 12
Pollen 9.50 out of 12
Air Quality Not available.
Flu Activity Not available.
METAR KLVJ 011253Z AUTO 17003KT 1SM BR OVC002 21/21 A3000 RMK AO2 SLP158 T02110206

More Conditions Fewer Conditions

Pressure 30.00 in
Visibility 1.0 miles
Clouds Overcast 200 ft
Dew Point 70 °F
Humidity 100%
Rainfall 0.00 in
Snow Depth Not available.
UV 0 out of 12
Pollen 9.50 out of 12
Air Quality Not available.
Flu Activity Not available.
METAR KLVJ 011253Z AUTO 17003KT 1SM BR OVC002 21/21 A3000 RMK AO2 SLP158 T02110206

More Conditions Fewer Conditions

10-Day Weather Forecast

Almanac

Astronomy

Apr. 01, 2015 Rise Set
Actual Time
Civil Twilight
Nautical Twilight
Astronomical Twilight
Moon
Length of Visible Light
Length of Day
Tomorrow will be .
, % of the Moon is Illuminated

Today's Extremes

State Highs State Lows

Community

WunderPhotos

Upload Photos

1,809,949 photos uploaded!

WunderBlogs® & News

Nearby

Air Quality

  Air Quality AQ Index Pollutant
Not available.

Snow Depth

Station Depth Elevation

Earthquake Activity

City Distance Mag. Time & Date
Minimum magnitude displayed is 2.5.

Coastal Water Temperatures

Place Temperature

Stations

Nearby Weather Stations

Station Location Temp. Windchill Dew Point Humidity Wind Precip. Elev Updated Type